createdAt,value
2022-12-23T00:01:13.003Z,-1.09
2022-12-23T00:03:39.724Z,-1.13
2022-12-23T00:06:11.948Z,-1.15
2022-12-23T00:08:39.159Z,-1.12
2022-12-23T00:11:10.315Z,-1.02
2022-12-23T00:13:36.846Z,-0.90
2022-12-23T00:16:08.897Z,-0.86
2022-12-23T00:18:35.706Z,-0.82
2022-12-23T00:21:09.173Z,-0.80
2022-12-23T00:23:39.630Z,-0.76
2022-12-23T00:26:07.273Z,-0.70
2022-12-23T00:28:34.115Z,-0.62
2022-12-23T00:31:04.382Z,-0.46
2022-12-23T00:33:37.319Z,-0.36
2022-12-23T00:36:31.642Z,-0.28
2022-12-23T00:38:59.821Z,-0.17
2022-12-23T00:41:26.841Z,-0.09
2022-12-23T00:43:53.379Z,0.01
2022-12-23T00:46:19.995Z,0.10
2022-12-23T00:48:46.559Z,0.16
2022-12-23T00:51:13.104Z,0.22
2022-12-23T00:53:39.606Z,0.21
2022-12-23T00:56:06.389Z,0.19
2022-12-23T00:58:32.932Z,0.19
2022-12-23T01:00:59.511Z,0.21
2022-12-23T01:03:26.135Z,0.25
2022-12-23T01:05:57.983Z,0.27
2022-12-23T01:08:24.623Z,0.31
2022-12-23T01:10:51.115Z,0.35
2022-12-23T01:13:17.709Z,0.40
2022-12-23T01:15:44.972Z,0.47
2022-12-23T01:18:11.619Z,0.49
2022-12-23T01:20:39.509Z,0.49
2022-12-23T01:23:06.951Z,0.50
2022-12-23T01:25:33.744Z,0.51
2022-12-23T01:28:00.226Z,0.56
2022-12-23T01:30:26.898Z,0.58
2022-12-23T01:32:53.335Z,0.62
2022-12-23T01:35:19.863Z,0.65
2022-12-23T01:37:46.283Z,0.70
2022-12-23T01:40:13.012Z,0.72
2022-12-23T01:42:39.682Z,0.70
2022-12-23T01:45:15.623Z,0.65
2022-12-23T01:47:49.875Z,0.62
2022-12-23T01:50:36.685Z,0.61
2022-12-23T01:53:07.186Z,0.63
2022-12-23T01:55:51.157Z,0.66
2022-12-23T01:58:36.895Z,0.71
2022-12-23T02:01:04.050Z,0.79
2022-12-23T02:03:31.231Z,0.81
2022-12-23T02:05:59.128Z,0.81
2022-12-23T02:08:25.671Z,0.82
2022-12-23T02:11:17.567Z,0.81
2022-12-23T02:14:05.815Z,0.81
2022-12-23T02:16:40.295Z,0.79
2022-12-23T02:19:22.896Z,0.82
2022-12-23T02:22:25.749Z,0.88
2022-12-23T02:25:02.472Z,0.91
2022-12-23T02:27:32.739Z,0.95
2022-12-23T02:30:40.839Z,0.99
2022-12-23T02:33:25.274Z,1.03
2022-12-23T02:36:01.409Z,1.08
2022-12-23T02:38:58.192Z,1.13
2022-12-23T02:41:49.218Z,1.18
2022-12-23T02:44:23.023Z,1.23
2022-12-23T02:46:57.441Z,1.20
2022-12-23T02:49:30.046Z,1.17
2022-12-23T02:51:59.736Z,1.16
2022-12-23T02:54:31.712Z,1.18
2022-12-23T02:57:02.245Z,1.21
2022-12-23T02:59:33.749Z,1.22
2022-12-23T03:02:01.146Z,1.25
2022-12-23T03:04:27.809Z,1.29
2022-12-23T03:06:56.960Z,1.33
2022-12-23T03:10:01.038Z,1.37
2022-12-23T03:12:33.959Z,1.40
2022-12-23T03:15:20.700Z,1.43
2022-12-23T03:17:53.727Z,1.46
2022-12-23T03:20:55.458Z,1.49
2022-12-23T03:23:29.329Z,1.54
2022-12-23T03:26:14.087Z,1.57
2022-12-23T03:28:50.914Z,1.55
2022-12-23T03:31:24.227Z,1.55
2022-12-23T03:34:00.103Z,1.55
2022-12-23T03:36:33.422Z,1.55
2022-12-23T03:39:04.570Z,1.54
2022-12-23T03:41:36.245Z,1.55
2022-12-23T03:44:09.937Z,1.56
2022-12-23T03:46:43.908Z,1.56
2022-12-23T03:49:21.033Z,1.54
2022-12-23T03:52:02.132Z,1.56
2022-12-23T03:54:38.704Z,1.55
2022-12-23T03:57:07.955Z,1.54
2022-12-23T03:59:39.160Z,1.55
2022-12-23T04:02:17.602Z,1.51
2022-12-23T04:04:56.104Z,1.47
2022-12-23T04:07:31.795Z,1.44
2022-12-23T04:09:59.750Z,1.44
2022-12-23T04:12:28.060Z,1.44
2022-12-23T04:14:54.695Z,1.46
2022-12-23T04:17:21.419Z,1.48
2022-12-23T04:19:47.910Z,1.49
2022-12-23T04:22:15.722Z,1.49
2022-12-23T04:24:42.993Z,1.49
2022-12-23T04:27:12.726Z,1.47
2022-12-23T04:29:39.260Z,1.47
2022-12-23T04:32:06.295Z,1.48
2022-12-23T04:34:32.766Z,1.48
2022-12-23T04:36:59.378Z,1.46
2022-12-23T04:39:25.924Z,1.43
2022-12-23T04:41:52.354Z,1.41
2022-12-23T04:44:18.789Z,1.37
2022-12-23T04:46:45.471Z,1.34
2022-12-23T04:49:12.175Z,1.30
2022-12-23T04:51:38.618Z,1.26
2022-12-23T04:54:05.261Z,1.20
2022-12-23T04:56:31.804Z,1.16
2022-12-23T04:58:58.199Z,1.11
2022-12-23T05:01:24.759Z,1.07
2022-12-23T05:03:51.323Z,1.04
2022-12-23T05:06:17.756Z,1.03
2022-12-23T05:08:44.299Z,1.05
2022-12-23T05:11:10.691Z,1.04
2022-12-23T05:13:37.139Z,0.98
2022-12-23T05:16:03.793Z,0.93
2022-12-23T05:18:30.246Z,0.87
2022-12-23T05:20:56.664Z,0.79
2022-12-23T05:23:23.225Z,0.76
2022-12-23T05:25:53.970Z,0.72
2022-12-23T05:28:21.818Z,0.68
2022-12-23T05:30:48.484Z,0.65
2022-12-23T05:33:15.902Z,0.60
2022-12-23T05:35:42.485Z,0.58
2022-12-23T05:38:09.020Z,0.58
2022-12-23T05:40:35.603Z,0.57
2022-12-23T05:43:02.425Z,0.55
2022-12-23T05:45:28.980Z,0.55
2022-12-23T05:47:55.602Z,0.52
2022-12-23T05:50:22.136Z,0.48
2022-12-23T05:52:48.675Z,0.43
2022-12-23T05:55:15.317Z,0.37
2022-12-23T05:57:41.748Z,0.28
2022-12-23T06:00:08.982Z,0.24
2022-12-23T06:02:35.549Z,0.19
2022-12-23T06:05:02.297Z,0.14
2022-12-23T06:07:28.880Z,0.09
2022-12-23T06:09:55.386Z,0.02
2022-12-23T06:12:21.809Z,-0.04
2022-12-23T06:14:48.367Z,-0.06
2022-12-23T06:17:14.793Z,-0.09
2022-12-23T06:19:41.194Z,-0.09
2022-12-23T06:22:07.692Z,-0.09
2022-12-23T06:24:34.082Z,-0.09
2022-12-23T06:27:00.539Z,-0.05
2022-12-23T06:29:27.109Z,-0.06
2022-12-23T06:31:53.629Z,-0.07
2022-12-23T06:34:20.172Z,-0.06
2022-12-23T06:36:46.733Z,-0.04
2022-12-23T06:39:13.268Z,-0.04
2022-12-23T06:41:39.770Z,-0.03
2022-12-23T06:44:06.855Z,-0.02
2022-12-23T06:46:33.244Z,-0.01
2022-12-23T06:48:59.837Z,0.01
2022-12-23T06:51:26.376Z,0.05
2022-12-23T06:53:53.137Z,0.10
2022-12-23T06:56:19.768Z,0.21
2022-12-23T06:58:46.409Z,0.37
2022-12-23T07:01:13.601Z,0.51
2022-12-23T07:03:40.118Z,0.61
2022-12-23T07:06:07.215Z,0.70
2022-12-23T07:08:33.715Z,0.75
2022-12-23T07:11:01.513Z,0.79
2022-12-23T07:13:28.102Z,0.85
2022-12-23T07:15:54.761Z,0.91
2022-12-23T07:18:25.274Z,0.93
2022-12-23T07:20:52.371Z,0.97
2022-12-23T07:23:18.837Z,1.00
2022-12-23T07:25:45.345Z,1.03
2022-12-23T07:28:13.907Z,1.03
2022-12-23T07:30:40.332Z,1.05
2022-12-23T07:33:06.767Z,1.09
2022-12-23T07:35:33.303Z,1.09
2022-12-23T07:37:59.721Z,1.11
2022-12-23T07:40:27.256Z,1.13
2022-12-23T07:42:56.759Z,1.16
2022-12-23T07:45:23.748Z,1.24
2022-12-23T07:47:59.261Z,1.34
2022-12-23T07:50:27.729Z,1.44
2022-12-23T07:52:54.661Z,1.49
2022-12-23T07:55:21.609Z,1.57
2022-12-23T07:57:49.658Z,1.67
2022-12-23T08:00:16.347Z,1.76
2022-12-23T08:02:42.970Z,1.83
2022-12-23T08:05:10.549Z,1.90
2022-12-23T08:07:37.181Z,1.97
2022-12-23T08:10:04.957Z,2.03
2022-12-23T08:12:31.900Z,2.12
2022-12-23T08:14:58.429Z,2.21
2022-12-23T08:17:29.635Z,2.31
2022-12-23T08:19:56.849Z,2.42
2022-12-23T08:22:24.186Z,2.57
2022-12-23T08:24:50.631Z,2.72
2022-12-23T08:27:17.690Z,2.85
2022-12-23T08:29:44.529Z,3.01
2022-12-23T08:32:11.072Z,3.11
2022-12-23T08:34:37.569Z,3.11
2022-12-23T08:37:04.049Z,3.12
2022-12-23T08:39:30.520Z,3.13
2022-12-23T08:41:57.048Z,3.19
2022-12-23T08:44:23.579Z,3.23
2022-12-23T08:46:50.083Z,3.27
2022-12-23T08:49:16.649Z,3.27
2022-12-23T08:51:43.115Z,3.27
2022-12-23T08:54:09.629Z,3.25
2022-12-23T08:56:39.938Z,3.21
2022-12-23T08:59:06.722Z,3.22
2022-12-23T09:01:34.494Z,3.25
2022-12-23T09:04:06.360Z,3.27
2022-12-23T09:06:39.950Z,3.26
2022-12-23T09:09:07.296Z,3.32
2022-12-23T09:11:34.477Z,3.36
2022-12-23T09:14:02.545Z,3.40
2022-12-23T09:16:29.538Z,3.45
2022-12-23T09:18:56.572Z,3.55
2022-12-23T09:21:23.997Z,3.68
2022-12-23T09:23:51.873Z,3.79
2022-12-23T09:26:24.231Z,3.82
2022-12-23T09:28:51.111Z,3.82
2022-12-23T09:31:18.364Z,3.83
2022-12-23T09:33:48.105Z,3.86
2022-12-23T09:36:14.888Z,3.87
2022-12-23T09:38:41.449Z,3.89
2022-12-23T09:41:28.055Z,3.88
2022-12-23T09:44:39.356Z,3.85
2022-12-23T09:47:15.515Z,3.82
2022-12-23T09:49:52.367Z,3.76
2022-12-23T09:52:43.610Z,3.74
2022-12-23T09:55:11.964Z,3.73
2022-12-23T09:57:52.058Z,3.75
2022-12-23T10:00:19.397Z,3.83
2022-12-23T10:03:23.623Z,3.92
2022-12-23T10:06:16.199Z,4.17
2022-12-23T10:08:49.721Z,4.39
2022-12-23T10:11:21.232Z,4.52
2022-12-23T10:13:58.322Z,4.61
2022-12-23T10:16:38.928Z,4.72
2022-12-23T10:19:13.937Z,4.79
2022-12-23T10:21:48.464Z,4.87
2022-12-23T10:24:26.005Z,4.98
2022-12-23T10:27:06.112Z,5.04
2022-12-23T10:29:34.033Z,5.09
2022-12-23T10:32:28.380Z,5.18
2022-12-23T10:35:01.472Z,5.28
2022-12-23T10:37:45.210Z,5.43
2022-12-23T10:40:14.382Z,5.55
2022-12-23T10:43:19.566Z,5.66
2022-12-23T10:46:17.401Z,5.68
2022-12-23T10:49:06.586Z,5.65
2022-12-23T10:51:45.632Z,5.65
2022-12-23T10:54:17.636Z,5.66
2022-12-23T10:56:44.448Z,5.69
2022-12-23T10:59:15.134Z,5.74
2022-12-23T11:01:47.395Z,5.73
2022-12-23T11:04:17.936Z,5.71
2022-12-23T11:06:52.824Z,5.67
2022-12-23T11:09:37.934Z,5.70
2022-12-23T11:12:07.784Z,5.67
2022-12-23T11:14:52.488Z,5.65
2022-12-23T11:17:25.355Z,5.67
2022-12-23T11:20:06.997Z,5.71
2022-12-23T11:22:33.666Z,5.80
2022-12-23T11:25:17.945Z,5.81
2022-12-23T11:27:45.809Z,5.73
2022-12-23T11:30:19.385Z,5.64
2022-12-23T11:32:45.863Z,5.57
2022-12-23T11:35:31.240Z,5.51
2022-12-23T11:38:00.784Z,5.43
2022-12-23T11:40:30.461Z,5.29
2022-12-23T11:43:00.864Z,5.18
2022-12-23T11:45:32.780Z,5.12
2022-12-23T11:47:59.524Z,5.13
2022-12-23T11:50:30.475Z,5.13
2022-12-23T11:53:25.182Z,5.17
2022-12-23T11:56:03.401Z,5.16
2022-12-23T11:58:31.497Z,5.08
2022-12-23T12:01:00.464Z,5.03
2022-12-23T12:03:31.995Z,4.99
2022-12-23T12:06:02.224Z,4.97
2022-12-23T12:08:34.036Z,4.94
2022-12-23T12:11:06.117Z,4.94
2022-12-23T12:13:41.143Z,4.93
2022-12-23T12:16:32.505Z,4.94
2022-12-23T12:19:10.612Z,4.93
2022-12-23T12:21:38.834Z,4.87
2022-12-23T12:24:18.717Z,4.86
2022-12-23T12:26:51.567Z,4.84
2022-12-23T12:29:33.475Z,4.84
2022-12-23T12:32:01.523Z,4.80
2022-12-23T12:34:49.529Z,4.80
2022-12-23T12:37:21.979Z,4.78
2022-12-23T12:40:20.254Z,4.78
2022-12-23T12:42:56.521Z,4.82
2022-12-23T12:45:26.776Z,4.76
2022-12-23T12:48:13.098Z,4.71
2022-12-23T12:51:11.512Z,4.68
2022-12-23T12:53:50.968Z,4.66
2022-12-23T12:56:35.157Z,4.61
2022-12-23T12:59:01.707Z,4.59
2022-12-23T13:01:48.361Z,4.58
2022-12-23T13:04:33.762Z,4.60
2022-12-23T13:07:29.295Z,4.60
2022-12-23T13:10:03.408Z,4.62
2022-12-23T13:13:06.613Z,4.63
2022-12-23T13:15:50.255Z,4.64
2022-12-23T13:18:57.248Z,4.61
2022-12-23T13:21:48.442Z,4.53
2022-12-23T13:24:24.932Z,4.42
2022-12-23T13:27:35.933Z,4.29
2022-12-23T13:30:11.871Z,4.14
2022-12-23T13:32:56.944Z,4.04
2022-12-23T13:35:32.400Z,3.95
2022-12-23T13:38:23.205Z,3.88
2022-12-23T13:41:30.694Z,3.82
2022-12-23T13:44:05.646Z,3.76
2022-12-23T13:47:09.586Z,3.73
2022-12-23T13:50:18.001Z,3.71
2022-12-23T13:53:09.108Z,3.69
2022-12-23T13:55:55.525Z,3.69
2022-12-23T13:58:25.952Z,3.69
2022-12-23T14:01:08.523Z,3.70
2022-12-23T14:03:37.527Z,3.71
2022-12-23T14:06:25.205Z,3.70
2022-12-23T14:08:53.549Z,3.67
2022-12-23T14:11:33.434Z,3.65
2022-12-23T14:14:06.486Z,3.62
2022-12-23T14:16:49.121Z,3.60
2022-12-23T14:19:18.650Z,3.55
2022-12-23T14:22:13.214Z,3.52
2022-12-23T14:25:05.374Z,3.45
2022-12-23T14:27:55.788Z,3.39
2022-12-23T14:30:38.603Z,3.34
2022-12-23T14:33:14.970Z,3.31
2022-12-23T14:35:42.860Z,3.27
2022-12-23T14:38:15.752Z,3.26
2022-12-23T14:40:42.201Z,3.27
2022-12-23T14:43:31.641Z,3.27
2022-12-23T14:46:02.759Z,3.26
2022-12-23T14:48:44.444Z,3.24
2022-12-23T14:51:11.050Z,3.23
2022-12-23T14:54:00.395Z,3.22
2022-12-23T14:56:38.954Z,3.22
2022-12-23T14:59:08.407Z,3.20
2022-12-23T15:01:47.431Z,3.17
2022-12-23T15:04:14.025Z,3.10
2022-12-23T15:06:47.601Z,3.00
2022-12-23T15:09:27.990Z,2.92
2022-12-23T15:11:57.559Z,2.85
2022-12-23T15:14:38.254Z,2.81
2022-12-23T15:17:16.179Z,2.79
2022-12-23T15:19:47.238Z,2.77
2022-12-23T15:22:22.759Z,2.75
2022-12-23T15:24:52.118Z,2.73
2022-12-23T15:27:29.366Z,2.73
2022-12-23T15:29:57.788Z,2.70
2022-12-23T15:32:26.834Z,2.67
2022-12-23T15:35:02.388Z,2.64
2022-12-23T15:37:30.790Z,2.63
2022-12-23T15:40:11.607Z,2.62
2022-12-23T15:42:39.449Z,2.65
2022-12-23T15:45:40.476Z,2.67
2022-12-23T15:48:27.314Z,2.68
2022-12-23T15:50:58.654Z,2.70
2022-12-23T15:53:32.579Z,2.74
2022-12-23T15:56:04.229Z,2.78
2022-12-23T15:58:34.149Z,2.81
2022-12-23T16:01:01.750Z,2.87
2022-12-23T16:03:40.362Z,2.88
2022-12-23T16:06:09.702Z,2.86
2022-12-23T16:08:37.617Z,2.82
2022-12-23T16:11:36.638Z,2.80
2022-12-23T16:14:24.387Z,2.79
2022-12-23T16:16:52.314Z,2.78
2022-12-23T16:19:38.416Z,2.81
2022-12-23T16:22:20.376Z,2.83
2022-12-23T16:24:50.729Z,2.83
2022-12-23T16:27:25.645Z,2.83
2022-12-23T16:29:52.042Z,2.80
2022-12-23T16:32:19.986Z,2.77
2022-12-23T16:34:51.263Z,2.74
2022-12-23T16:37:17.724Z,2.71
2022-12-23T16:39:44.412Z,2.69
2022-12-23T16:42:11.029Z,2.66
2022-12-23T16:44:37.517Z,2.62
2022-12-23T16:47:13.105Z,2.60
2022-12-23T16:49:39.580Z,2.58
2022-12-23T16:52:07.180Z,2.56
2022-12-23T16:54:33.708Z,2.53
2022-12-23T16:57:00.332Z,2.50
2022-12-23T16:59:26.902Z,2.47
2022-12-23T17:01:56.553Z,2.43
2022-12-23T17:04:26.229Z,2.42
2022-12-23T17:06:52.688Z,2.41
2022-12-23T17:09:19.306Z,2.39
2022-12-23T17:11:53.060Z,2.37
2022-12-23T17:14:22.937Z,2.33
2022-12-23T17:16:50.568Z,2.32
2022-12-23T17:19:23.341Z,2.32
2022-12-23T17:21:59.700Z,2.33
2022-12-23T17:24:27.024Z,2.33
2022-12-23T17:26:54.586Z,2.34
2022-12-23T17:29:21.131Z,2.33
2022-12-23T17:31:48.741Z,2.32
2022-12-23T17:34:17.720Z,2.30
2022-12-23T17:36:49.944Z,2.29
2022-12-23T17:39:18.044Z,2.26
2022-12-23T17:41:44.523Z,2.25
2022-12-23T17:44:14.345Z,2.24
2022-12-23T17:46:41.052Z,2.24
2022-12-23T17:49:08.736Z,2.27
2022-12-23T17:51:35.476Z,2.29
2022-12-23T17:54:01.871Z,2.29
2022-12-23T17:56:28.835Z,2.28
2022-12-23T17:58:55.404Z,2.27
2022-12-23T18:01:29.030Z,2.26
2022-12-23T18:03:57.663Z,2.25
2022-12-23T18:06:25.649Z,2.25
2022-12-23T18:08:52.176Z,2.22
2022-12-23T18:11:30.283Z,2.20
2022-12-23T18:13:57.145Z,2.17
2022-12-23T18:16:23.921Z,2.15
2022-12-23T18:18:50.537Z,2.12
2022-12-23T18:21:25.586Z,2.14
2022-12-23T18:23:54.463Z,2.15
2022-12-23T18:26:21.201Z,2.17
2022-12-23T18:28:47.777Z,2.19
2022-12-23T18:31:21.562Z,2.20
2022-12-23T18:33:48.361Z,2.20
2022-12-23T18:36:27.921Z,2.19
2022-12-23T18:38:54.995Z,2.19
2022-12-23T18:41:22.185Z,2.17
2022-12-23T18:43:49.519Z,2.16
2022-12-23T18:46:16.911Z,2.16
2022-12-23T18:48:43.702Z,2.16
2022-12-23T18:51:14.027Z,2.18
2022-12-23T18:53:40.664Z,2.22
2022-12-23T18:56:10.160Z,2.25
2022-12-23T18:58:36.607Z,2.28
2022-12-23T19:01:03.078Z,2.30
2022-12-23T19:03:31.329Z,2.32
2022-12-23T19:05:59.235Z,2.33
2022-12-23T19:08:27.685Z,2.34
2022-12-23T19:10:55.259Z,2.34
2022-12-23T19:13:21.810Z,2.35
2022-12-23T19:15:48.484Z,2.33
2022-12-23T19:18:17.636Z,2.32
2022-12-23T19:20:45.786Z,2.29
2022-12-23T19:23:13.187Z,2.27
2022-12-23T19:25:52.600Z,2.26
2022-12-23T19:28:22.093Z,2.23
2022-12-23T19:30:49.116Z,2.20
2022-12-23T19:33:16.046Z,2.18
2022-12-23T19:35:43.184Z,2.17
2022-12-23T19:38:10.028Z,2.16
2022-12-23T19:40:36.557Z,2.15
2022-12-23T19:43:03.209Z,2.16
2022-12-23T19:45:30.004Z,2.17
2022-12-23T19:47:56.502Z,2.17
2022-12-23T19:50:23.000Z,2.19
2022-12-23T19:52:49.580Z,2.21
2022-12-23T19:55:16.418Z,2.23
2022-12-23T19:57:42.884Z,2.24
2022-12-23T20:00:10.118Z,2.23
2022-12-23T20:02:36.560Z,2.21
2022-12-23T20:05:04.633Z,2.19
2022-12-23T20:07:31.180Z,2.17
2022-12-23T20:09:57.792Z,2.15
2022-12-23T20:12:24.238Z,2.14
2022-12-23T20:14:50.667Z,2.15
2022-12-23T20:17:17.133Z,2.16
2022-12-23T20:19:46.185Z,2.18
2022-12-23T20:22:13.089Z,2.17
2022-12-23T20:24:39.641Z,2.15
2022-12-23T20:27:10.919Z,2.11
2022-12-23T20:29:38.457Z,2.09
2022-12-23T20:32:05.353Z,2.09
2022-12-23T20:34:38.434Z,2.10
2022-12-23T20:37:08.338Z,2.11
2022-12-23T20:39:35.495Z,2.11
2022-12-23T20:42:02.024Z,2.09
2022-12-23T20:44:37.332Z,2.10
2022-12-23T20:47:07.276Z,2.14
2022-12-23T20:49:33.795Z,2.15
2022-12-23T20:52:00.847Z,2.16
2022-12-23T20:54:32.694Z,2.16
2022-12-23T20:57:01.944Z,2.17
2022-12-23T20:59:29.093Z,2.18
2022-12-23T21:01:56.875Z,2.18
2022-12-23T21:04:23.302Z,2.16
2022-12-23T21:06:50.152Z,2.15
2022-12-23T21:09:17.017Z,2.14
2022-12-23T21:11:45.875Z,2.14
2022-12-23T21:14:14.566Z,2.13
2022-12-23T21:16:41.833Z,2.10
2022-12-23T21:19:13.467Z,2.06
2022-12-23T21:21:40.009Z,2.03
2022-12-23T21:24:06.589Z,2.02
2022-12-23T21:26:34.620Z,2.01
2022-12-23T21:29:03.209Z,1.99
2022-12-23T21:31:31.736Z,1.99
2022-12-23T21:33:58.826Z,1.99
2022-12-23T21:36:28.204Z,1.98
2022-12-23T21:38:54.742Z,1.94
2022-12-23T21:41:30.135Z,1.92
2022-12-23T21:43:58.117Z,1.87
2022-12-23T21:46:25.002Z,1.84
2022-12-23T21:48:52.386Z,1.79
2022-12-23T21:51:34.855Z,1.76
2022-12-23T21:54:05.387Z,1.72
2022-12-23T21:56:32.126Z,1.69
2022-12-23T21:59:01.385Z,1.67
2022-12-23T22:01:29.087Z,1.65
2022-12-23T22:03:56.749Z,1.63
2022-12-23T22:06:36.338Z,1.63
2022-12-23T22:09:04.482Z,1.62
2022-12-23T22:11:33.430Z,1.61
2022-12-23T22:14:01.326Z,1.67
2022-12-23T22:16:30.070Z,1.69
2022-12-23T22:18:58.342Z,1.68
2022-12-23T22:21:26.804Z,1.67
2022-12-23T22:23:54.898Z,1.67
2022-12-23T22:26:26.389Z,1.65
2022-12-23T22:28:55.488Z,1.63
2022-12-23T22:31:37.900Z,1.61
2022-12-23T22:34:05.848Z,1.58
2022-12-23T22:36:33.415Z,1.55
2022-12-23T22:39:01.815Z,1.54
2022-12-23T22:41:29.790Z,1.52
2022-12-23T22:43:58.025Z,1.51
2022-12-23T22:46:25.647Z,1.50
2022-12-23T22:48:52.762Z,1.48
2022-12-23T22:51:24.999Z,1.46
2022-12-23T22:53:51.961Z,1.45
2022-12-23T22:56:20.576Z,1.45
2022-12-23T22:58:47.168Z,1.46
2022-12-23T23:01:28.634Z,1.47
2022-12-23T23:03:55.732Z,1.45
2022-12-23T23:06:24.402Z,1.45
2022-12-23T23:08:50.902Z,1.47
2022-12-23T23:11:17.924Z,1.51
2022-12-23T23:13:44.460Z,1.55
2022-12-23T23:16:10.980Z,1.59
2022-12-23T23:18:37.644Z,1.66
2022-12-23T23:21:04.263Z,1.69
2022-12-23T23:23:30.821Z,1.73
2022-12-23T23:25:57.243Z,1.77
2022-12-23T23:28:23.674Z,1.79
2022-12-23T23:31:03.577Z,1.82
2022-12-23T23:33:36.914Z,1.86
2022-12-23T23:36:04.017Z,1.89
2022-12-23T23:38:30.955Z,1.92
2022-12-23T23:40:58.727Z,1.94
2022-12-23T23:43:25.193Z,1.91
2022-12-23T23:45:52.080Z,1.88
2022-12-23T23:48:19.687Z,1.86
2022-12-23T23:50:46.617Z,1.86
2022-12-23T23:53:14.023Z,1.87
2022-12-23T23:55:41.152Z,1.88
2022-12-23T23:58:08.255Z,1.89
